sensor_id;sensor_type;location;lat;lon;timestamp;P1;durP1;ratioP1;P2;durP2;ratioP2
9884;SDS011;4981;50.966;4.842;2023-02-11T00:00:25;158.23;;;141.67;;
9884;SDS011;4981;50.966;4.842;2023-02-11T00:02:53;142.63;;;127.80;;
9884;SDS011;4981;50.966;4.842;2023-02-11T00:05:20;178.27;;;161.00;;
9884;SDS011;4981;50.966;4.842;2023-02-11T00:07:48;158.30;;;141.60;;
9884;SDS011;4981;50.966;4.842;2023-02-11T00:10:16;152.10;;;135.93;;
9884;SDS011;4981;50.966;4.842;2023-02-11T00:12:43;201.87;;;182.43;;
9884;SDS011;4981;50.966;4.842;2023-02-11T00:15:12;156.87;;;140.87;;
9884;SDS011;4981;50.966;4.842;2023-02-11T00:17:40;179.73;;;161.20;;
9884;SDS011;4981;50.966;4.842;2023-02-11T00:20:08;199.10;;;179.57;;
9884;SDS011;4981;50.966;4.842;2023-02-11T00:22:36;160.67;;;143.27;;
9884;SDS011;4981;50.966;4.842;2023-02-11T00:25:03;166.20;;;148.40;;
9884;SDS011;4981;50.966;4.842;2023-02-11T00:27:31;167.40;;;149.43;;
9884;SDS011;4981;50.966;4.842;2023-02-11T00:29:58;173.50;;;156.30;;
9884;SDS011;4981;50.966;4.842;2023-02-11T00:32:28;230.90;;;208.20;;
9884;SDS011;4981;50.966;4.842;2023-02-11T00:34:55;165.60;;;144.93;;
9884;SDS011;4981;50.966;4.842;2023-02-11T00:37:23;194.80;;;174.70;;
9884;SDS011;4981;50.966;4.842;2023-02-11T00:39:50;257.33;;;234.43;;
9884;SDS011;4981;50.966;4.842;2023-02-11T00:42:18;178.20;;;135.87;;
9884;SDS011;4981;50.966;4.842;2023-02-11T00:44:46;189.10;;;150.00;;
9884;SDS011;4981;50.966;4.842;2023-02-11T00:47:13;166.30;;;138.07;;
9884;SDS011;4981;50.966;4.842;2023-02-11T00:49:42;205.30;;;185.30;;
9884;SDS011;4981;50.966;4.842;2023-02-11T00:52:10;260.07;;;237.00;;
9884;SDS011;4981;50.966;4.842;2023-02-11T00:54:37;176.63;;;157.03;;
9884;SDS011;4981;50.966;4.842;2023-02-11T00:57:05;162.90;;;138.27;;
9884;SDS011;4981;50.966;4.842;2023-02-11T00:59:32;168.00;;;140.00;;
9884;SDS011;4981;50.966;4.842;2023-02-11T01:02:00;178.40;;;160.17;;
9884;SDS011;4981;50.966;4.842;2023-02-11T01:04:29;167.90;;;150.20;;
9884;SDS011;4981;50.966;4.842;2023-02-11T01:06:58;190.07;;;171.10;;
9884;SDS011;4981;50.966;4.842;2023-02-11T01:09:25;169.53;;;152.50;;
9884;SDS011;4981;50.966;4.842;2023-02-11T01:11:53;155.47;;;127.23;;
9884;SDS011;4981;50.966;4.842;2023-02-11T01:14:21;157.83;;;141.00;;
9884;SDS011;4981;50.966;4.842;2023-02-11T01:16:48;185.77;;;165.83;;
9884;SDS011;4981;50.966;4.842;2023-02-11T01:19:16;177.57;;;154.70;;
9884;SDS011;4981;50.966;4.842;2023-02-11T01:21:43;155.33;;;138.83;;
9884;SDS011;4981;50.966;4.842;2023-02-11T01:24:12;180.10;;;162.83;;
9884;SDS011;4981;50.966;4.842;2023-02-11T01:26:40;236.57;;;215.83;;
9884;SDS011;4981;50.966;4.842;2023-02-11T01:29:08;141.73;;;126.13;;
9884;SDS011;4981;50.966;4.842;2023-02-11T01:31:35;144.33;;;128.83;;
9884;SDS011;4981;50.966;4.842;2023-02-11T01:34:03;150.37;;;130.03;;
9884;SDS011;4981;50.966;4.842;2023-02-11T01:36:30;202.53;;;182.60;;
9884;SDS011;4981;50.966;4.842;2023-02-11T01:38:58;167.37;;;150.90;;
9884;SDS011;4981;50.966;4.842;2023-02-11T01:41:27;174.33;;;156.10;;
9884;SDS011;4981;50.966;4.842;2023-02-11T01:43:55;265.40;;;238.17;;
9884;SDS011;4981;50.966;4.842;2023-02-11T01:46:25;163.33;;;138.13;;
9884;SDS011;4981;50.966;4.842;2023-02-11T01:48:55;256.50;;;231.60;;
9884;SDS011;4981;50.966;4.842;2023-02-11T01:51:24;158.70;;;140.93;;
9884;SDS011;4981;50.966;4.842;2023-02-11T01:53:53;163.60;;;136.60;;
9884;SDS011;4981;50.966;4.842;2023-02-11T01:56:40;175.43;;;157.90;;
9884;SDS011;4981;50.966;4.842;2023-02-11T01:59:28;166.10;;;149.20;;
9884;SDS011;4981;50.966;4.842;2023-02-11T02:01:57;178.23;;;160.63;;
9884;SDS011;4981;50.966;4.842;2023-02-11T02:04:26;146.83;;;123.47;;
9884;SDS011;4981;50.966;4.842;2023-02-11T02:06:58;172.33;;;154.07;;
9884;SDS011;4981;50.966;4.842;2023-02-11T02:09:27;166.33;;;135.37;;
9884;SDS011;4981;50.966;4.842;2023-02-11T02:11:57;180.33;;;144.47;;
9884;SDS011;4981;50.966;4.842;2023-02-11T02:14:24;172.07;;;142.30;;
9884;SDS011;4981;50.966;4.842;2023-02-11T02:16:53;177.57;;;158.70;;
9884;SDS011;4981;50.966;4.842;2023-02-11T02:19:36;156.50;;;133.80;;
9884;SDS011;4981;50.966;4.842;2023-02-11T02:22:21;156.97;;;128.97;;
9884;SDS011;4981;50.966;4.842;2023-02-11T02:25:11;128.97;;;114.77;;
9884;SDS011;4981;50.966;4.842;2023-02-11T02:27:57;191.23;;;172.83;;
9884;SDS011;4981;50.966;4.842;2023-02-11T02:30:42;147.87;;;132.10;;
9884;SDS011;4981;50.966;4.842;2023-02-11T02:36:05;87.13;;;72.80;;
9884;SDS011;4981;50.966;4.842;2023-02-11T02:38:39;42.50;;;27.03;;
9884;SDS011;4981;50.966;4.842;2023-02-11T02:41:11;26.47;;;12.37;;
9884;SDS011;4981;50.966;4.842;2023-02-11T02:43:41;57.27;;;39.60;;
9884;SDS011;4981;50.966;4.842;2023-02-11T02:46:11;53.67;;;41.73;;
9884;SDS011;4981;50.966;4.842;2023-02-11T02:48:40;41.50;;;22.70;;
9884;SDS011;4981;50.966;4.842;2023-02-11T02:51:14;31.13;;;13.90;;
9884;SDS011;4981;50.966;4.842;2023-02-11T02:53:54;56.80;;;46.53;;
9884;SDS011;4981;50.966;4.842;2023-02-11T02:56:32;100.40;;;85.03;;
9884;SDS011;4981;50.966;4.842;2023-02-11T02:59:12;166.60;;;147.73;;
9884;SDS011;4981;50.966;4.842;2023-02-11T03:01:53;170.13;;;143.80;;
9884;SDS011;4981;50.966;4.842;2023-02-11T03:04:30;136.07;;;121.20;;
9884;SDS011;4981;50.966;4.842;2023-02-11T03:07:04;146.77;;;123.97;;
9884;SDS011;4981;50.966;4.842;2023-02-11T03:09:39;250.03;;;226.50;;
9884;SDS011;4981;50.966;4.842;2023-02-11T03:12:10;128.63;;;111.87;;
9884;SDS011;4981;50.966;4.842;2023-02-11T03:14:39;154.80;;;138.23;;
9884;SDS011;4981;50.966;4.842;2023-02-11T03:17:07;175.37;;;157.10;;
9884;SDS011;4981;50.966;4.842;2023-02-11T03:19:36;167.50;;;151.60;;
9884;SDS011;4981;50.966;4.842;2023-02-11T03:22:09;178.37;;;160.53;;
9884;SDS011;4981;50.966;4.842;2023-02-11T03:24:41;41.97;;;30.27;;
9884;SDS011;4981;50.966;4.842;2023-02-11T03:27:11;153.97;;;132.97;;
9884;SDS011;4981;50.966;4.842;2023-02-11T03:29:48;181.40;;;161.70;;
9884;SDS011;4981;50.966;4.842;2023-02-11T03:32:22;160.93;;;135.87;;
9884;SDS011;4981;50.966;4.842;2023-02-11T03:34:54;147.73;;;130.83;;
9884;SDS011;4981;50.966;4.842;2023-02-11T03:37:24;149.33;;;128.83;;
9884;SDS011;4981;50.966;4.842;2023-02-11T03:39:59;176.13;;;158.30;;
9884;SDS011;4981;50.966;4.842;2023-02-11T03:42:30;148.43;;;128.73;;
9884;SDS011;4981;50.966;4.842;2023-02-11T03:45:02;162.53;;;140.17;;
9884;SDS011;4981;50.966;4.842;2023-02-11T03:47:32;159.43;;;143.90;;
9884;SDS011;4981;50.966;4.842;2023-02-11T03:50:02;192.23;;;173.43;;
9884;SDS011;4981;50.966;4.842;2023-02-11T03:52:34;159.70;;;138.10;;
9884;SDS011;4981;50.966;4.842;2023-02-11T03:55:05;206.40;;;184.30;;
9884;SDS011;4981;50.966;4.842;2023-02-11T03:57:36;172.03;;;154.20;;
9884;SDS011;4981;50.966;4.842;2023-02-11T04:00:05;151.97;;;135.93;;
9884;SDS011;4981;50.966;4.842;2023-02-11T04:02:34;155.77;;;138.93;;
9884;SDS011;4981;50.966;4.842;2023-02-11T04:05:02;149.47;;;133.30;;
9884;SDS011;4981;50.966;4.842;2023-02-11T04:07:30;147.37;;;129.33;;
9884;SDS011;4981;50.966;4.842;2023-02-11T04:09:59;163.47;;;145.83;;
9884;SDS011;4981;50.966;4.842;2023-02-11T04:12:27;163.17;;;145.47;;
9884;SDS011;4981;50.966;4.842;2023-02-11T04:14:54;143.07;;;128.00;;
9884;SDS011;4981;50.966;4.842;2023-02-11T04:17:22;157.97;;;124.93;;
9884;SDS011;4981;50.966;4.842;2023-02-11T04:19:49;170.70;;;132.33;;
9884;SDS011;4981;50.966;4.842;2023-02-11T04:22:17;65.07;;;43.10;;
9884;SDS011;4981;50.966;4.842;2023-02-11T04:24:44;80.60;;;69.27;;
9884;SDS011;4981;50.966;4.842;2023-02-11T04:27:13;146.13;;;119.47;;
9884;SDS011;4981;50.966;4.842;2023-02-11T04:29:40;168.73;;;130.10;;
9884;SDS011;4981;50.966;4.842;2023-02-11T04:32:08;168.53;;;132.50;;
9884;SDS011;4981;50.966;4.842;2023-02-11T04:34:36;226.27;;;201.60;;
9884;SDS011;4981;50.966;4.842;2023-02-11T04:37:03;170.17;;;128.73;;
9884;SDS011;4981;50.966;4.842;2023-02-11T04:39:31;222.60;;;198.73;;
9884;SDS011;4981;50.966;4.842;2023-02-11T04:41:58;163.53;;;139.03;;
9884;SDS011;4981;50.966;4.842;2023-02-11T04:44:27;143.33;;;125.90;;
9884;SDS011;4981;50.966;4.842;2023-02-11T04:46:57;160.83;;;145.17;;
9884;SDS011;4981;50.966;4.842;2023-02-11T04:49:24;152.87;;;136.10;;
9884;SDS011;4981;50.966;4.842;2023-02-11T04:51:51;161.90;;;144.77;;
9884;SDS011;4981;50.966;4.842;2023-02-11T04:54:19;139.17;;;116.97;;
9884;SDS011;4981;50.966;4.842;2023-02-11T04:56:46;170.63;;;153.37;;
9884;SDS011;4981;50.966;4.842;2023-02-11T04:59:15;142.77;;;127.70;;
9884;SDS011;4981;50.966;4.842;2023-02-11T05:01:44;167.73;;;150.57;;
9884;SDS011;4981;50.966;4.842;2023-02-11T05:04:11;211.27;;;189.77;;
9884;SDS011;4981;50.966;4.842;2023-02-11T05:06:38;168.00;;;151.40;;
9884;SDS011;4981;50.966;4.842;2023-02-11T05:09:06;144.73;;;121.07;;
9884;SDS011;4981;50.966;4.842;2023-02-11T05:11:33;155.37;;;138.13;;
9884;SDS011;4981;50.966;4.842;2023-02-11T05:14:03;151.97;;;135.40;;
9884;SDS011;4981;50.966;4.842;2023-02-11T05:16:30;143.73;;;127.30;;
9884;SDS011;4981;50.966;4.842;2023-02-11T05:19:00;174.80;;;158.17;;
9884;SDS011;4981;50.966;4.842;2023-02-11T05:21:27;155.93;;;139.57;;
9884;SDS011;4981;50.966;4.842;2023-02-11T05:23:55;156.27;;;139.93;;
9884;SDS011;4981;50.966;4.842;2023-02-11T05:26:23;140.00;;;122.40;;
9884;SDS011;4981;50.966;4.842;2023-02-11T05:28:50;137.30;;;117.63;;
9884;SDS011;4981;50.966;4.842;2023-02-11T05:31:18;250.40;;;228.37;;
9884;SDS011;4981;50.966;4.842;2023-02-11T05:33:45;145.30;;;129.83;;
9884;SDS011;4981;50.966;4.842;2023-02-11T05:36:14;134.17;;;119.40;;
9884;SDS011;4981;50.966;4.842;2023-02-11T05:38:42;143.37;;;128.07;;
9884;SDS011;4981;50.966;4.842;2023-02-11T05:41:11;167.10;;;150.00;;
9884;SDS011;4981;50.966;4.842;2023-02-11T05:43:39;157.77;;;141.23;;
9884;SDS011;4981;50.966;4.842;2023-02-11T05:46:06;151.13;;;134.73;;
9884;SDS011;4981;50.966;4.842;2023-02-11T05:48:33;158.63;;;142.07;;
9884;SDS011;4981;50.966;4.842;2023-02-11T05:51:01;154.87;;;137.90;;
9884;SDS011;4981;50.966;4.842;2023-02-11T05:53:30;184.63;;;166.93;;
9884;SDS011;4981;50.966;4.842;2023-02-11T05:55:57;149.37;;;133.60;;
9884;SDS011;4981;50.966;4.842;2023-02-11T05:58:24;139.80;;;124.77;;
9884;SDS011;4981;50.966;4.842;2023-02-11T06:00:52;151.63;;;135.40;;
9884;SDS011;4981;50.966;4.842;2023-02-11T06:03:19;161.10;;;144.77;;
9884;SDS011;4981;50.966;4.842;2023-02-11T06:05:46;149.10;;;133.97;;
9884;SDS011;4981;50.966;4.842;2023-02-11T06:08:14;194.83;;;176.00;;
9884;SDS011;4981;50.966;4.842;2023-02-11T06:10:44;162.50;;;145.43;;
9884;SDS011;4981;50.966;4.842;2023-02-11T06:13:11;209.47;;;190.27;;
9884;SDS011;4981;50.966;4.842;2023-02-11T06:15:39;201.93;;;183.27;;
9884;SDS011;4981;50.966;4.842;2023-02-11T06:18:06;147.50;;;132.27;;
9884;SDS011;4981;50.966;4.842;2023-02-11T06:20:34;168.90;;;151.43;;
9884;SDS011;4981;50.966;4.842;2023-02-11T06:23:04;161.00;;;134.07;;
9884;SDS011;4981;50.966;4.842;2023-02-11T06:25:32;169.13;;;151.17;;
9884;SDS011;4981;50.966;4.842;2023-02-11T06:28:01;139.63;;;118.63;;
9884;SDS011;4981;50.966;4.842;2023-02-11T06:30:28;179.57;;;158.93;;
9884;SDS011;4981;50.966;4.842;2023-02-11T06:32:55;175.47;;;156.67;;
9884;SDS011;4981;50.966;4.842;2023-02-11T06:35:22;145.77;;;126.77;;
9884;SDS011;4981;50.966;4.842;2023-02-11T06:37:50;176.87;;;158.40;;
9884;SDS011;4981;50.966;4.842;2023-02-11T06:40:18;230.80;;;209.47;;
9884;SDS011;4981;50.966;4.842;2023-02-11T06:42:45;171.03;;;152.57;;
9884;SDS011;4981;50.966;4.842;2023-02-11T06:45:14;157.23;;;137.97;;
9884;SDS011;4981;50.966;4.842;2023-02-11T06:47:42;168.00;;;150.93;;
9884;SDS011;4981;50.966;4.842;2023-02-11T06:50:10;152.87;;;136.63;;
9884;SDS011;4981;50.966;4.842;2023-02-11T06:52:39;176.23;;;158.70;;
9884;SDS011;4981;50.966;4.842;2023-02-11T06:55:07;187.03;;;169.13;;
9884;SDS011;4981;50.966;4.842;2023-02-11T06:57:35;159.37;;;142.37;;
9884;SDS011;4981;50.966;4.842;2023-02-11T07:00:03;155.30;;;138.93;;
9884;SDS011;4981;50.966;4.842;2023-02-11T07:02:32;157.97;;;141.07;;
9884;SDS011;4981;50.966;4.842;2023-02-11T07:04:59;168.27;;;150.43;;
9884;SDS011;4981;50.966;4.842;2023-02-11T07:07:26;164.93;;;141.47;;
9884;SDS011;4981;50.966;4.842;2023-02-11T07:09:55;170.57;;;152.30;;
9884;SDS011;4981;50.966;4.842;2023-02-11T07:12:23;174.53;;;152.07;;
9884;SDS011;4981;50.966;4.842;2023-02-11T07:14:50;137.80;;;122.00;;
9884;SDS011;4981;50.966;4.842;2023-02-11T07:17:18;181.53;;;163.37;;
9884;SDS011;4981;50.966;4.842;2023-02-11T07:19:47;155.87;;;139.30;;
9884;SDS011;4981;50.966;4.842;2023-02-11T07:22:14;168.27;;;139.87;;
9884;SDS011;4981;50.966;4.842;2023-02-11T07:24:41;168.67;;;144.30;;
9884;SDS011;4981;50.966;4.842;2023-02-11T07:27:09;191.77;;;172.30;;
9884;SDS011;4981;50.966;4.842;2023-02-11T07:29:37;164.73;;;147.23;;
9884;SDS011;4981;50.966;4.842;2023-02-11T07:32:04;177.23;;;157.93;;
9884;SDS011;4981;50.966;4.842;2023-02-11T07:34:32;178.63;;;148.87;;
9884;SDS011;4981;50.966;4.842;2023-02-11T07:37:00;179.23;;;141.73;;
9884;SDS011;4981;50.966;4.842;2023-02-11T07:39:28;153.40;;;130.70;;
9884;SDS011;4981;50.966;4.842;2023-02-11T07:41:55;152.03;;;135.43;;
9884;SDS011;4981;50.966;4.842;2023-02-11T07:44:22;162.83;;;141.47;;
9884;SDS011;4981;50.966;4.842;2023-02-11T07:46:50;156.40;;;139.53;;
9884;SDS011;4981;50.966;4.842;2023-02-11T07:49:17;180.90;;;162.70;;
9884;SDS011;4981;50.966;4.842;2023-02-11T07:51:44;162.63;;;133.60;;
9884;SDS011;4981;50.966;4.842;2023-02-11T07:54:14;177.90;;;158.03;;
9884;SDS011;4981;50.966;4.842;2023-02-11T07:56:42;159.93;;;137.93;;
9884;SDS011;4981;50.966;4.842;2023-02-11T07:59:09;163.27;;;145.33;;
9884;SDS011;4981;50.966;4.842;2023-02-11T08:01:37;177.53;;;158.77;;
9884;SDS011;4981;50.966;4.842;2023-02-11T08:04:04;154.53;;;131.67;;
9884;SDS011;4981;50.966;4.842;2023-02-11T08:06:32;155.47;;;137.23;;
9884;SDS011;4981;50.966;4.842;2023-02-11T08:09:02;162.83;;;144.90;;
9884;SDS011;4981;50.966;4.842;2023-02-11T08:11:32;208.13;;;187.90;;
9884;SDS011;4981;50.966;4.842;2023-02-11T08:14:00;173.30;;;147.60;;
9884;SDS011;4981;50.966;4.842;2023-02-11T08:16:28;157.50;;;132.50;;
9884;SDS011;4981;50.966;4.842;2023-02-11T08:18:57;180.67;;;160.97;;
9884;SDS011;4981;50.966;4.842;2023-02-11T08:21:26;169.07;;;137.47;;
9884;SDS011;4981;50.966;4.842;2023-02-11T08:23:54;166.30;;;133.60;;
9884;SDS011;4981;50.966;4.842;2023-02-11T08:26:22;175.20;;;144.80;;
9884;SDS011;4981;50.966;4.842;2023-02-11T08:28:52;179.93;;;160.20;;
9884;SDS011;4981;50.966;4.842;2023-02-11T08:31:22;264.20;;;238.80;;
9884;SDS011;4981;50.966;4.842;2023-02-11T08:33:51;174.47;;;155.47;;
9884;SDS011;4981;50.966;4.842;2023-02-11T08:36:23;160.43;;;142.87;;
9884;SDS011;4981;50.966;4.842;2023-02-11T08:38:53;182.63;;;163.30;;
9884;SDS011;4981;50.966;4.842;2023-02-11T08:41:21;175.97;;;146.27;;
9884;SDS011;4981;50.966;4.842;2023-02-11T08:43:48;181.13;;;160.83;;
9884;SDS011;4981;50.966;4.842;2023-02-11T08:46:18;178.53;;;152.40;;
9884;SDS011;4981;50.966;4.842;2023-02-11T08:48:46;172.03;;;145.63;;
9884;SDS011;4981;50.966;4.842;2023-02-11T08:51:14;182.27;;;143.70;;
9884;SDS011;4981;50.966;4.842;2023-02-11T08:53:43;175.63;;;150.47;;
9884;SDS011;4981;50.966;4.842;2023-02-11T08:56:10;174.80;;;145.43;;
9884;SDS011;4981;50.966;4.842;2023-02-11T08:58:39;180.73;;;144.50;;
9884;SDS011;4981;50.966;4.842;2023-02-11T09:01:11;180.90;;;141.27;;
9884;SDS011;4981;50.966;4.842;2023-02-11T09:03:40;199.90;;;172.40;;
9884;SDS011;4981;50.966;4.842;2023-02-11T09:06:08;191.07;;;152.50;;
9884;SDS011;4981;50.966;4.842;2023-02-11T09:08:38;182.40;;;143.97;;
9884;SDS011;4981;50.966;4.842;2023-02-11T09:11:07;175.80;;;142.53;;
9884;SDS011;4981;50.966;4.842;2023-02-11T09:13:35;228.60;;;204.40;;
9884;SDS011;4981;50.966;4.842;2023-02-11T09:16:03;181.93;;;152.50;;
9884;SDS011;4981;50.966;4.842;2023-02-11T09:18:31;185.83;;;143.07;;
9884;SDS011;4981;50.966;4.842;2023-02-11T09:21:04;214.97;;;190.97;;
9884;SDS011;4981;50.966;4.842;2023-02-11T09:23:33;199.47;;;170.23;;
9884;SDS011;4981;50.966;4.842;2023-02-11T09:26:04;188.17;;;155.27;;
9884;SDS011;4981;50.966;4.842;2023-02-11T09:28:32;201.80;;;179.13;;
9884;SDS011;4981;50.966;4.842;2023-02-11T09:31:03;180.67;;;146.90;;
9884;SDS011;4981;50.966;4.842;2023-02-11T09:33:31;180.90;;;139.97;;
9884;SDS011;4981;50.966;4.842;2023-02-11T09:35:59;201.13;;;177.90;;
9884;SDS011;4981;50.966;4.842;2023-02-11T09:38:28;178.33;;;138.83;;
9884;SDS011;4981;50.966;4.842;2023-02-11T09:40:56;192.00;;;162.00;;
9884;SDS011;4981;50.966;4.842;2023-02-11T09:43:25;176.87;;;137.27;;
9884;SDS011;4981;50.966;4.842;2023-02-11T09:46:00;191.37;;;155.03;;
9884;SDS011;4981;50.966;4.842;2023-02-11T09:48:37;237.37;;;213.03;;
9884;SDS011;4981;50.966;4.842;2023-02-11T09:51:12;193.17;;;156.07;;
9884;SDS011;4981;50.966;4.842;2023-02-11T09:53:45;187.67;;;147.77;;
9884;SDS011;4981;50.966;4.842;2023-02-11T09:56:15;225.30;;;186.60;;
9884;SDS011;4981;50.966;4.842;2023-02-11T09:58:43;191.37;;;157.33;;
9884;SDS011;4981;50.966;4.842;2023-02-11T10:01:13;210.27;;;162.27;;
9884;SDS011;4981;50.966;4.842;2023-02-11T10:03:52;198.63;;;147.67;;
9884;SDS011;4981;50.966;4.842;2023-02-11T10:06:34;191.90;;;145.43;;
9884;SDS011;4981;50.966;4.842;2023-02-11T10:09:07;215.13;;;169.30;;
9884;SDS011;4981;50.966;4.842;2023-02-11T10:11:39;219.63;;;169.13;;
9884;SDS011;4981;50.966;4.842;2023-02-11T10:14:12;213.47;;;183.13;;
9884;SDS011;4981;50.966;4.842;2023-02-11T10:16:51;200.93;;;155.20;;
9884;SDS011;4981;50.966;4.842;2023-02-11T10:19:28;211.53;;;159.77;;
9884;SDS011;4981;50.966;4.842;2023-02-11T10:21:58;212.43;;;158.17;;
9884;SDS011;4981;50.966;4.842;2023-02-11T10:24:31;228.10;;;175.70;;
9884;SDS011;4981;50.966;4.842;2023-02-11T10:26:59;287.83;;;256.90;;
9884;SDS011;4981;50.966;4.842;2023-02-11T10:29:33;233.10;;;167.20;;
9884;SDS011;4981;50.966;4.842;2023-02-11T10:32:05;209.50;;;186.97;;
9884;SDS011;4981;50.966;4.842;2023-02-11T10:34:39;216.17;;;173.60;;
9884;SDS011;4981;50.966;4.842;2023-02-11T10:37:07;223.67;;;157.67;;
9884;SDS011;4981;50.966;4.842;2023-02-11T10:39:37;198.63;;;162.27;;
9884;SDS011;4981;50.966;4.842;2023-02-11T10:42:05;214.17;;;182.90;;
9884;SDS011;4981;50.966;4.842;2023-02-11T10:44:35;213.10;;;181.60;;
9884;SDS011;4981;50.966;4.842;2023-02-11T10:47:04;197.37;;;153.50;;
9884;SDS011;4981;50.966;4.842;2023-02-11T10:49:37;238.40;;;206.23;;
9884;SDS011;4981;50.966;4.842;2023-02-11T10:52:11;186.90;;;155.27;;
9884;SDS011;4981;50.966;4.842;2023-02-11T10:54:41;236.20;;;203.13;;
9884;SDS011;4981;50.966;4.842;2023-02-11T10:57:11;212.10;;;173.90;;
9884;SDS011;4981;50.966;4.842;2023-02-11T10:59:42;196.07;;;173.17;;
9884;SDS011;4981;50.966;4.842;2023-02-11T11:02:18;193.97;;;156.70;;
9884;SDS011;4981;50.966;4.842;2023-02-11T11:04:47;217.77;;;182.47;;
9884;SDS011;4981;50.966;4.842;2023-02-11T11:07:16;195.27;;;165.10;;
9884;SDS011;4981;50.966;4.842;2023-02-11T11:15:16;183.03;;;153.23;;
9884;SDS011;4981;50.966;4.842;2023-02-11T11:17:45;184.87;;;158.53;;
9884;SDS011;4981;50.966;4.842;2023-02-11T11:20:14;198.37;;;176.63;;
9884;SDS011;4981;50.966;4.842;2023-02-11T11:22:42;176.07;;;150.67;;
9884;SDS011;4981;50.966;4.842;2023-02-11T11:25:21;205.97;;;181.17;;
9884;SDS011;4981;50.966;4.842;2023-02-11T11:27:49;184.97;;;159.33;;
9884;SDS011;4981;50.966;4.842;2023-02-11T11:30:20;187.60;;;165.33;;
9884;SDS011;4981;50.966;4.842;2023-02-11T11:32:49;190.60;;;170.53;;
9884;SDS011;4981;50.966;4.842;2023-02-11T11:35:20;189.80;;;169.03;;
9884;SDS011;4981;50.966;4.842;2023-02-11T11:37:51;213.10;;;178.87;;
9884;SDS011;4981;50.966;4.842;2023-02-11T11:40:23;190.43;;;169.47;;
9884;SDS011;4981;50.966;4.842;2023-02-11T11:43:04;177.87;;;152.23;;
9884;SDS011;4981;50.966;4.842;2023-02-11T11:45:34;175.13;;;150.33;;
9884;SDS011;4981;50.966;4.842;2023-02-11T11:48:02;278.40;;;253.07;;
9884;SDS011;4981;50.966;4.842;2023-02-11T11:50:33;181.83;;;157.97;;
9884;SDS011;4981;50.966;4.842;2023-02-11T11:53:03;199.00;;;178.00;;
9884;SDS011;4981;50.966;4.842;2023-02-11T11:55:33;197.43;;;175.83;;
9884;SDS011;4981;50.966;4.842;2023-02-11T11:58:01;196.37;;;175.17;;
9884;SDS011;4981;50.966;4.842;2023-02-11T12:00:30;189.93;;;146.07;;
9884;SDS011;4981;50.966;4.842;2023-02-11T12:05:49;189.20;;;163.20;;
9884;SDS011;4981;50.966;4.842;2023-02-11T12:08:19;189.40;;;162.93;;
9884;SDS011;4981;50.966;4.842;2023-02-11T12:10:53;183.97;;;151.97;;
9884;SDS011;4981;50.966;4.842;2023-02-11T12:13:26;204.20;;;167.43;;
9884;SDS011;4981;50.966;4.842;2023-02-11T12:15:57;227.43;;;203.27;;
9884;SDS011;4981;50.966;4.842;2023-02-11T12:18:38;192.00;;;157.90;;
9884;SDS011;4981;50.966;4.842;2023-02-11T12:21:12;184.97;;;162.17;;
9884;SDS011;4981;50.966;4.842;2023-02-11T12:23:45;174.67;;;145.50;;
9884;SDS011;4981;50.966;4.842;2023-02-11T12:26:17;180.33;;;160.77;;
9884;SDS011;4981;50.966;4.842;2023-02-11T12:28:52;186.90;;;166.43;;
9884;SDS011;4981;50.966;4.842;2023-02-11T12:31:31;189.27;;;167.77;;
9884;SDS011;4981;50.966;4.842;2023-02-11T12:34:13;173.83;;;151.67;;
9884;SDS011;4981;50.966;4.842;2023-02-11T12:36:54;192.63;;;171.90;;
9884;SDS011;4981;50.966;4.842;2023-02-11T12:39:29;169.50;;;151.00;;
9884;SDS011;4981;50.966;4.842;2023-02-11T12:42:06;196.00;;;170.80;;
9884;SDS011;4981;50.966;4.842;2023-02-11T12:45:03;181.90;;;154.30;;
9884;SDS011;4981;50.966;4.842;2023-02-11T12:47:36;176.80;;;151.90;;
9884;SDS011;4981;50.966;4.842;2023-02-11T12:50:10;194.63;;;173.63;;
9884;SDS011;4981;50.966;4.842;2023-02-11T12:52:43;176.57;;;157.43;;
9884;SDS011;4981;50.966;4.842;2023-02-11T12:55:16;185.73;;;165.33;;
9884;SDS011;4981;50.966;4.842;2023-02-11T12:57:46;182.83;;;162.97;;
9884;SDS011;4981;50.966;4.842;2023-02-11T13:00:15;248.17;;;224.77;;
9884;SDS011;4981;50.966;4.842;2023-02-11T13:02:45;173.83;;;153.73;;
9884;SDS011;4981;50.966;4.842;2023-02-11T13:05:19;242.13;;;219.10;;
9884;SDS011;4981;50.966;4.842;2023-02-11T13:07:50;185.47;;;165.63;;
9884;SDS011;4981;50.966;4.842;2023-02-11T13:10:22;191.90;;;165.33;;
9884;SDS011;4981;50.966;4.842;2023-02-11T13:12:51;177.57;;;142.20;;
9884;SDS011;4981;50.966;4.842;2023-02-11T13:15:37;220.03;;;197.57;;
9884;SDS011;4981;50.966;4.842;2023-02-11T13:18:09;201.93;;;180.70;;
9884;SDS011;4981;50.966;4.842;2023-02-11T13:20:40;196.17;;;175.30;;
9884;SDS011;4981;50.966;4.842;2023-02-11T13:23:16;196.47;;;176.23;;
9884;SDS011;4981;50.966;4.842;2023-02-11T13:25:46;196.57;;;177.33;;
9884;SDS011;4981;50.966;4.842;2023-02-11T13:28:19;215.83;;;194.30;;
9884;SDS011;4981;50.966;4.842;2023-02-11T13:30:49;177.33;;;158.30;;
9884;SDS011;4981;50.966;4.842;2023-02-11T13:33:29;177.50;;;158.60;;
9884;SDS011;4981;50.966;4.842;2023-02-11T13:36:11;223.07;;;199.67;;
9884;SDS011;4981;50.966;4.842;2023-02-11T13:38:40;194.50;;;173.73;;
9884;SDS011;4981;50.966;4.842;2023-02-11T13:41:18;204.50;;;167.83;;
9884;SDS011;4981;50.966;4.842;2023-02-11T13:43:56;217.70;;;193.97;;
9884;SDS011;4981;50.966;4.842;2023-02-11T13:46:24;185.57;;;164.43;;
9884;SDS011;4981;50.966;4.842;2023-02-11T13:48:54;216.77;;;196.10;;
9884;SDS011;4981;50.966;4.842;2023-02-11T13:51:33;202.33;;;180.80;;
9884;SDS011;4981;50.966;4.842;2023-02-11T13:54:02;216.10;;;193.80;;
9884;SDS011;4981;50.966;4.842;2023-02-11T13:56:31;191.07;;;170.03;;
9884;SDS011;4981;50.966;4.842;2023-02-11T13:59:00;188.50;;;153.93;;
9884;SDS011;4981;50.966;4.842;2023-02-11T14:01:39;194.70;;;160.13;;
9884;SDS011;4981;50.966;4.842;2023-02-11T14:04:20;170.47;;;150.87;;
9884;SDS011;4981;50.966;4.842;2023-02-11T14:07:20;169.23;;;148.73;;
9884;SDS011;4981;50.966;4.842;2023-02-11T14:13:05;171.73;;;153.07;;
9884;SDS011;4981;50.966;4.842;2023-02-11T14:15:39;171.20;;;152.43;;
9884;SDS011;4981;50.966;4.842;2023-02-11T14:20:53;186.23;;;165.80;;
9884;SDS011;4981;50.966;4.842;2023-02-11T14:23:33;195.80;;;174.47;;
9884;SDS011;4981;50.966;4.842;2023-02-11T14:26:19;169.13;;;150.53;;
9884;SDS011;4981;50.966;4.842;2023-02-11T14:28:58;222.57;;;201.33;;
9884;SDS011;4981;50.966;4.842;2023-02-11T14:31:27;203.57;;;183.13;;
9884;SDS011;4981;50.966;4.842;2023-02-11T14:36:46;199.23;;;177.83;;
9884;SDS011;4981;50.966;4.842;2023-02-11T14:39:19;181.13;;;161.57;;
9884;SDS011;4981;50.966;4.842;2023-02-11T14:41:48;155.13;;;138.87;;
9884;SDS011;4981;50.966;4.842;2023-02-11T14:44:18;49.80;;;30.67;;
9884;SDS011;4981;50.966;4.842;2023-02-11T14:46:48;50.17;;;29.67;;
9884;SDS011;4981;50.966;4.842;2023-02-11T14:49:19;55.83;;;33.93;;
9884;SDS011;4981;50.966;4.842;2023-02-11T14:51:47;51.80;;;29.90;;
9884;SDS011;4981;50.966;4.842;2023-02-11T14:54:15;49.13;;;29.77;;
9884;SDS011;4981;50.966;4.842;2023-02-11T14:56:46;52.87;;;30.63;;
9884;SDS011;4981;50.966;4.842;2023-02-11T14:59:33;48.27;;;30.63;;
9884;SDS011;4981;50.966;4.842;2023-02-11T15:02:01;48.00;;;29.30;;